createdAt,value
2023-04-11T00:01:56.117Z,68.01
2023-04-11T00:04:29.008Z,68.12
2023-04-11T00:07:01.681Z,68.20
2023-04-11T00:09:33.976Z,68.52
2023-04-11T00:12:07.496Z,68.95
2023-04-11T00:14:45.543Z,68.99
2023-04-11T00:17:18.182Z,68.90
2023-04-11T00:19:53.301Z,68.80
2023-04-11T00:22:27.952Z,68.73
2023-04-11T00:25:00.360Z,68.73
2023-04-11T00:27:32.669Z,68.85
2023-04-11T00:30:06.894Z,68.86
2023-04-11T00:32:39.241Z,68.92
2023-04-11T00:35:13.029Z,68.92
2023-04-11T00:37:45.712Z,69.12
2023-04-11T00:40:18.839Z,68.97
2023-04-11T00:42:51.169Z,68.81
2023-04-11T00:45:23.394Z,68.58
2023-04-11T00:47:56.348Z,68.60
2023-04-11T00:50:29.377Z,68.68
2023-04-11T00:53:01.904Z,68.93
2023-04-11T00:55:34.217Z,68.97
2023-04-11T00:58:08.388Z,69.02
2023-04-11T01:00:41.645Z,69.20
2023-04-11T01:03:14.945Z,69.54
2023-04-11T01:05:48.338Z,69.33
2023-04-11T01:08:22.648Z,69.97
2023-04-11T01:10:54.092Z,70.09
2023-04-11T01:13:26.958Z,69.78
2023-04-11T01:15:59.481Z,69.33
2023-04-11T01:18:32.335Z,69.23
2023-04-11T01:21:05.822Z,69.07
2023-04-11T01:23:38.232Z,69.00
2023-04-11T01:26:10.664Z,69.12
2023-04-11T01:28:43.099Z,69.48
2023-04-11T01:31:15.668Z,70.11
2023-04-11T01:33:48.339Z,70.36
2023-04-11T01:36:20.759Z,70.27
2023-04-11T01:38:53.093Z,69.98
2023-04-11T01:41:26.662Z,69.98
2023-04-11T01:43:59.611Z,69.77
2023-04-11T01:46:32.158Z,69.50
2023-04-11T01:49:07.914Z,69.50
2023-04-11T01:51:41.175Z,69.50
2023-04-11T01:54:13.473Z,69.63
2023-04-11T01:56:46.427Z,69.32
2023-04-11T01:59:19.628Z,69.28
2023-04-11T02:01:52.437Z,69.00
2023-04-11T02:04:24.974Z,68.66
2023-04-11T02:06:57.202Z,69.11
2023-04-11T02:09:29.545Z,69.31
2023-04-11T02:12:02.040Z,69.39
2023-04-11T02:14:44.584Z,69.30
2023-04-11T02:17:18.963Z,68.91
2023-04-11T02:19:51.910Z,68.41
2023-04-11T02:22:24.301Z,68.80
2023-04-11T02:24:56.483Z,69.10
2023-04-11T02:27:28.810Z,69.43
2023-04-11T02:30:05.817Z,69.37
2023-04-11T02:32:39.055Z,69.89
2023-04-11T02:35:12.549Z,69.89
2023-04-11T02:37:45.572Z,69.85
2023-04-11T02:40:18.144Z,69.81
2023-04-11T02:42:50.681Z,69.56
2023-04-11T02:45:23.827Z,69.97
2023-04-11T02:47:56.256Z,69.90
2023-04-11T02:50:28.887Z,70.08
2023-04-11T02:53:01.819Z,70.05
2023-04-11T02:55:35.265Z,69.88
2023-04-11T02:58:07.520Z,69.79
2023-04-11T03:00:41.909Z,69.80
2023-04-11T03:03:13.572Z,69.70
2023-04-11T03:05:50.198Z,69.62
2023-04-11T03:08:26.223Z,70.32
2023-04-11T03:10:58.939Z,69.99
2023-04-11T03:13:32.170Z,69.65
2023-04-11T03:16:05.303Z,69.70
2023-04-11T03:18:37.848Z,69.80
2023-04-11T03:21:12.528Z,69.66
2023-04-11T03:23:48.261Z,69.33
2023-04-11T03:26:20.698Z,69.50
2023-04-11T03:28:53.847Z,69.34
2023-04-11T03:31:26.425Z,69.44
2023-04-11T03:33:59.818Z,69.43
2023-04-11T03:36:32.684Z,69.15
2023-04-11T03:39:08.155Z,69.28
2023-04-11T03:41:42.088Z,68.99
2023-04-11T03:44:17.532Z,68.62
2023-04-11T03:46:50.934Z,68.73
2023-04-11T03:49:24.819Z,68.72
2023-04-11T03:52:01.603Z,68.96
2023-04-11T03:54:34.399Z,68.89
2023-04-11T03:57:07.605Z,68.84
2023-04-11T03:59:40.429Z,68.91
2023-04-11T04:02:16.119Z,68.84
2023-04-11T04:04:58.596Z,68.57
2023-04-11T04:07:35.502Z,68.64
2023-04-11T04:10:27.857Z,68.89
2023-04-11T04:13:00.753Z,68.93
2023-04-11T04:15:40.854Z,68.67
2023-04-11T04:18:13.969Z,69.03
2023-04-11T04:20:50.721Z,68.98
2023-04-11T04:23:24.113Z,68.86
2023-04-11T04:26:25.253Z,69.03
2023-04-11T04:29:18.391Z,69.07
2023-04-11T04:31:57.067Z,69.09
2023-04-11T04:34:38.156Z,68.95
2023-04-11T04:37:21.602Z,69.08
2023-04-11T04:39:55.235Z,69.14
2023-04-11T04:42:34.445Z,68.85
2023-04-11T04:45:10.309Z,68.89
2023-04-11T04:47:43.622Z,68.84
2023-04-11T04:50:16.570Z,68.87
2023-04-11T04:52:50.365Z,68.89
2023-04-11T04:55:23.083Z,68.99
2023-04-11T04:57:55.751Z,68.90
2023-04-11T05:00:28.692Z,68.82
2023-04-11T05:03:06.022Z,68.76
2023-04-11T05:05:39.251Z,68.79
2023-04-11T05:08:12.250Z,68.90
2023-04-11T05:10:45.522Z,68.92
2023-04-11T05:13:18.358Z,69.17
2023-04-11T05:15:54.383Z,69.13
2023-04-11T05:18:29.813Z,69.27
2023-04-11T05:21:01.539Z,69.56
2023-04-11T05:23:41.439Z,69.12
2023-04-11T05:26:14.628Z,69.40
2023-04-11T05:28:47.022Z,69.62
2023-04-11T05:31:22.968Z,69.80
2023-04-11T05:33:57.381Z,69.39
2023-04-11T05:36:34.852Z,68.98
2023-04-11T05:39:08.113Z,69.02
2023-04-11T05:41:40.648Z,69.26
2023-04-11T05:44:12.943Z,69.44
2023-04-11T05:46:46.049Z,69.41
2023-04-11T05:49:19.332Z,69.50
2023-04-11T05:51:51.967Z,69.44
2023-04-11T05:54:35.425Z,69.36
2023-04-11T05:57:08.269Z,69.90
2023-04-11T05:59:40.740Z,69.73
2023-04-11T06:02:12.970Z,69.74
2023-04-11T06:04:46.042Z,70.18
2023-04-11T06:07:18.479Z,69.91
2023-04-11T06:09:51.126Z,69.97
2023-04-11T06:12:23.495Z,69.72
2023-04-11T06:14:55.944Z,69.62
2023-04-11T06:17:28.294Z,69.46
2023-04-11T06:20:02.902Z,69.32
2023-04-11T06:22:36.251Z,69.44
2023-04-11T06:25:09.552Z,69.57
2023-04-11T06:27:41.901Z,69.52
2023-04-11T06:30:14.822Z,69.24
2023-04-11T06:32:46.952Z,69.29
2023-04-11T06:35:20.462Z,69.38
2023-04-11T06:37:53.341Z,69.42
2023-04-11T06:40:25.830Z,69.47
2023-04-11T06:43:00.444Z,69.20
2023-04-11T06:45:32.613Z,68.71
2023-04-11T06:48:05.141Z,68.68
2023-04-11T06:50:41.156Z,68.86
2023-04-11T06:53:13.411Z,69.14
2023-04-11T06:55:49.051Z,69.25
2023-04-11T06:58:21.485Z,69.55
2023-04-11T07:00:53.747Z,69.50
2023-04-11T07:03:26.555Z,69.02
2023-04-11T07:05:58.794Z,68.74
2023-04-11T07:08:31.745Z,68.76
2023-04-11T07:11:04.563Z,68.49
2023-04-11T07:13:36.807Z,68.01
2023-04-11T07:16:10.701Z,67.67
2023-04-11T07:18:43.145Z,67.80
2023-04-11T07:21:18.187Z,67.50
2023-04-11T07:23:52.809Z,67.22
2023-04-11T07:26:24.174Z,67.07
2023-04-11T07:28:56.819Z,67.07
2023-04-11T07:31:28.885Z,66.76
2023-04-11T07:34:01.358Z,66.63
2023-04-11T07:36:34.410Z,66.08
2023-04-11T07:39:09.488Z,66.23
2023-04-11T07:41:42.064Z,66.09
2023-04-11T07:44:14.314Z,66.09
2023-04-11T07:46:46.494Z,65.55
2023-04-11T07:49:18.714Z,65.28
2023-04-11T07:51:51.126Z,65.24
2023-04-11T07:54:25.297Z,65.26
2023-04-11T07:56:58.111Z,65.13
2023-04-11T07:59:30.300Z,65.12
2023-04-11T08:02:04.509Z,65.07
2023-04-11T08:04:38.394Z,65.10
2023-04-11T08:07:11.529Z,65.13
2023-04-11T08:09:44.050Z,64.27
2023-04-11T08:12:16.917Z,64.36
2023-04-11T08:14:49.068Z,64.69
2023-04-11T08:17:28.183Z,64.85
2023-04-11T08:20:02.285Z,64.49
2023-04-11T08:22:35.638Z,64.55
2023-04-11T08:25:09.911Z,64.22
2023-04-11T08:27:42.490Z,63.96
2023-04-11T08:30:16.461Z,63.88
2023-04-11T08:32:48.612Z,64.23
2023-04-11T08:35:21.059Z,63.71
2023-04-11T08:37:53.808Z,64.07
2023-04-11T08:40:27.152Z,63.35
2023-04-11T08:43:02.882Z,63.51
2023-04-11T08:45:35.214Z,63.12
2023-04-11T08:48:07.991Z,62.59
2023-04-11T08:50:41.769Z,63.01
2023-04-11T08:53:15.843Z,62.88
2023-04-11T08:55:51.700Z,62.87
2023-04-11T08:58:23.965Z,62.65
2023-04-11T09:00:56.467Z,62.79
2023-04-11T09:03:28.766Z,62.63
2023-04-11T09:06:12.129Z,62.87
2023-04-11T09:08:44.476Z,63.32
2023-04-11T09:11:16.762Z,63.13
2023-04-11T09:13:49.429Z,63.09
2023-04-11T09:16:22.091Z,63.41
2023-04-11T09:18:54.525Z,63.83
2023-04-11T09:21:28.179Z,63.03
2023-04-11T09:24:16.562Z,62.79
2023-04-11T09:26:49.001Z,62.23
2023-04-11T09:29:39.060Z,61.97
2023-04-11T09:32:32.445Z,62.29
2023-04-11T09:35:16.797Z,62.04
2023-04-11T09:37:52.246Z,62.12
2023-04-11T09:40:27.056Z,61.92
2023-04-11T09:43:01.745Z,61.98
2023-04-11T09:45:44.234Z,61.70
2023-04-11T09:48:39.515Z,61.83
2023-04-11T09:51:34.296Z,61.98
2023-04-11T09:54:08.233Z,61.83
2023-04-11T09:56:40.715Z,61.07
2023-04-11T09:59:13.766Z,61.91
2023-04-11T10:01:47.175Z,62.01
2023-04-11T10:04:20.661Z,62.81
2023-04-11T10:07:02.349Z,62.16
2023-04-11T10:09:38.871Z,60.97
2023-04-11T10:12:11.004Z,60.99
2023-04-11T10:14:47.136Z,61.37
2023-04-11T10:17:23.986Z,60.02
2023-04-11T10:19:58.930Z,58.63
2023-04-11T10:23:02.047Z,58.76
2023-04-11T10:25:49.087Z,58.67
2023-04-11T10:28:38.874Z,58.13
2023-04-11T10:31:14.420Z,58.05
2023-04-11T10:34:16.110Z,58.49
2023-04-11T10:37:05.124Z,58.41
2023-04-11T10:40:10.478Z,57.98
2023-04-11T10:42:44.469Z,59.23
2023-04-11T10:45:27.667Z,59.33
2023-04-11T10:48:13.613Z,59.14
2023-04-11T10:50:46.746Z,58.88
2023-04-11T10:53:38.577Z,59.35
2023-04-11T10:56:10.753Z,59.58
2023-04-11T10:58:43.085Z,60.60
2023-04-11T11:01:32.379Z,61.55
2023-04-11T11:04:10.828Z,62.69
2023-04-11T11:06:51.114Z,64.08
2023-04-11T11:09:28.804Z,63.98
2023-04-11T11:12:12.160Z,65.12
2023-04-11T11:14:46.062Z,65.47
2023-04-11T11:17:19.908Z,65.06
2023-04-11T11:19:52.549Z,64.58
2023-04-11T11:22:26.457Z,64.24
2023-04-11T11:25:10.452Z,64.54
2023-04-11T11:27:42.655Z,64.48
2023-04-11T11:30:16.808Z,65.76
2023-04-11T11:32:48.888Z,66.52
2023-04-11T11:35:21.770Z,66.80
2023-04-11T11:37:55.065Z,66.69
2023-04-11T11:40:28.681Z,67.60
2023-04-11T11:43:01.008Z,68.27
2023-04-11T11:45:33.625Z,68.25
2023-04-11T11:48:06.029Z,69.38
2023-04-11T11:50:39.119Z,68.83
2023-04-11T11:53:17.768Z,68.90
2023-04-11T11:55:50.072Z,69.34
2023-04-11T11:58:23.049Z,69.83
2023-04-11T12:00:55.827Z,70.66
2023-04-11T12:03:29.770Z,70.79
2023-04-11T12:06:02.260Z,70.89
2023-04-11T12:08:41.536Z,70.85
2023-04-11T12:11:15.848Z,71.02
2023-04-11T12:13:52.840Z,70.08
2023-04-11T12:16:28.243Z,69.99
2023-04-11T12:19:03.512Z,70.09
2023-04-11T12:21:36.397Z,71.16
2023-04-11T12:24:10.807Z,72.10
2023-04-11T12:26:57.383Z,71.88
2023-04-11T12:29:35.008Z,72.87
2023-04-11T12:32:07.360Z,73.19
2023-04-11T12:34:39.842Z,74.74
2023-04-11T12:37:12.098Z,75.25
2023-04-11T12:39:44.268Z,76.66
2023-04-11T12:42:18.649Z,76.48
2023-04-11T12:44:53.148Z,77.38
2023-04-11T12:47:25.440Z,79.95
2023-04-11T12:49:58.062Z,78.93
2023-04-11T12:52:30.702Z,76.24
2023-04-11T12:55:03.824Z,75.72
2023-04-11T12:57:37.172Z,76.93
2023-04-11T13:00:13.480Z,77.70
2023-04-11T13:02:45.893Z,77.86
2023-04-11T13:05:19.893Z,75.86
2023-04-11T13:07:52.188Z,75.42
2023-04-11T13:10:25.334Z,74.68
2023-04-11T13:13:00.656Z,74.43
2023-04-11T13:15:38.545Z,74.21
2023-04-11T13:18:11.221Z,73.76
2023-04-11T13:20:43.549Z,74.32
2023-04-11T13:23:17.337Z,74.37
2023-04-11T13:25:50.163Z,74.24
2023-04-11T13:28:22.510Z,74.25
2023-04-11T13:30:54.538Z,74.65
2023-04-11T13:33:27.301Z,74.60
2023-04-11T13:35:59.812Z,75.45
2023-04-11T13:38:32.225Z,75.20
2023-04-11T13:41:04.744Z,74.08
2023-04-11T13:43:36.962Z,73.76
2023-04-11T13:46:09.612Z,72.90
2023-04-11T13:48:41.970Z,72.76
2023-04-11T13:51:14.906Z,72.93
2023-04-11T13:53:47.457Z,72.76
2023-04-11T13:56:20.619Z,72.16
2023-04-11T13:58:52.772Z,71.97
2023-04-11T14:01:25.224Z,72.38
2023-04-11T14:03:57.981Z,71.90
2023-04-11T14:06:30.426Z,72.50
2023-04-11T14:09:05.315Z,72.39
2023-04-11T14:11:36.154Z,73.02
2023-04-11T14:14:08.437Z,73.08
2023-04-11T14:16:40.791Z,73.03
2023-04-11T14:19:13.310Z,73.02
2023-04-11T14:21:46.558Z,73.83
2023-04-11T14:24:22.424Z,73.31
2023-04-11T14:26:54.913Z,73.15
2023-04-11T14:29:27.297Z,73.36
2023-04-11T14:31:59.631Z,73.20
2023-04-11T14:34:32.028Z,72.97
2023-04-11T14:37:04.599Z,73.19
2023-04-11T14:39:39.057Z,73.18
2023-04-11T14:42:11.303Z,72.56
2023-04-11T14:44:43.792Z,71.68
2023-04-11T14:47:16.265Z,71.08
2023-04-11T14:49:48.567Z,70.77
2023-04-11T14:52:21.163Z,71.77
2023-04-11T14:54:53.832Z,71.09
2023-04-11T14:57:26.487Z,71.17
2023-04-11T15:00:01.807Z,72.29
2023-04-11T15:02:34.144Z,71.53
2023-04-11T15:05:08.385Z,71.81
2023-04-11T15:07:40.589Z,73.15
2023-04-11T15:10:13.596Z,73.38
2023-04-11T15:12:45.740Z,73.96
2023-04-11T15:15:18.250Z,73.95
2023-04-11T15:18:11.168Z,73.94
2023-04-11T15:20:43.477Z,73.89
2023-04-11T15:23:15.904Z,73.59
2023-04-11T15:25:53.236Z,72.74
2023-04-11T15:28:26.700Z,74.08
2023-04-11T15:30:59.406Z,74.51
2023-04-11T15:33:32.483Z,75.31
2023-04-11T15:36:05.627Z,75.18
2023-04-11T15:38:38.182Z,75.26
2023-04-11T15:41:10.762Z,74.50
2023-04-11T15:43:42.909Z,74.63
2023-04-11T15:46:16.267Z,74.01
2023-04-11T15:48:48.499Z,74.28
2023-04-11T15:51:20.861Z,74.14
2023-04-11T15:55:04.501Z,73.53
2023-04-11T16:02:34.140Z,72.74
2023-04-11T16:05:07.982Z,72.62
2023-04-11T16:07:40.806Z,72.16
2023-04-11T16:10:13.411Z,72.17
2023-04-11T16:12:45.773Z,72.28
2023-04-11T16:15:19.148Z,71.52
2023-04-11T16:17:51.615Z,71.11
2023-04-11T16:20:24.346Z,70.40
2023-04-11T16:22:56.540Z,70.36
2023-04-11T16:25:29.235Z,70.03
2023-04-11T16:28:01.614Z,69.82
2023-04-11T16:30:33.914Z,70.09
2023-04-11T16:33:07.082Z,70.47
2023-04-11T16:35:39.980Z,70.35
2023-04-11T16:38:12.152Z,70.20
2023-04-11T16:40:44.821Z,69.51
2023-04-11T16:43:17.199Z,69.71
2023-04-11T16:45:49.359Z,69.79
2023-04-11T16:48:21.792Z,69.63
2023-04-11T16:50:53.920Z,70.21
2023-04-11T16:53:26.107Z,69.26
2023-04-11T16:55:59.475Z,69.21
2023-04-11T16:58:32.380Z,69.16
2023-04-11T17:01:04.965Z,69.68
2023-04-11T17:03:37.932Z,69.43
2023-04-11T17:06:15.489Z,70.71
2023-04-11T17:08:47.915Z,71.53
2023-04-11T17:11:20.464Z,71.61
2023-04-11T17:13:54.869Z,71.52
2023-04-11T17:16:27.421Z,72.97
2023-04-11T17:18:59.604Z,73.41
2023-04-11T17:21:31.989Z,72.92
2023-04-11T17:24:05.089Z,72.71
2023-04-11T17:26:37.450Z,72.55
2023-04-11T17:29:11.186Z,72.14
2023-04-11T17:31:43.443Z,71.67
2023-04-11T17:34:16.168Z,70.26
2023-04-11T17:36:48.727Z,70.02
2023-04-11T17:39:21.421Z,69.21
2023-04-11T17:41:53.751Z,69.41
2023-04-11T17:44:26.070Z,69.83
2023-04-11T17:46:58.452Z,69.25
2023-04-11T17:49:30.872Z,69.47
2023-04-11T17:52:03.305Z,70.39
2023-04-11T17:54:36.181Z,71.44
2023-04-11T17:57:08.496Z,71.91
2023-04-11T17:59:40.931Z,72.93
2023-04-11T18:02:13.327Z,73.62
2023-04-11T18:04:46.644Z,73.85
2023-04-11T18:07:19.155Z,73.97
2023-04-11T18:09:51.627Z,73.85
2023-04-11T18:12:29.796Z,73.96
2023-04-11T18:15:02.582Z,74.18
2023-04-11T18:17:35.954Z,74.03
2023-04-11T18:20:11.025Z,73.57
2023-04-11T18:22:45.615Z,73.34
2023-04-11T18:25:18.284Z,73.01
2023-04-11T18:27:50.632Z,72.86
2023-04-11T18:30:22.871Z,72.16
2023-04-11T18:32:55.794Z,72.97
2023-04-11T18:35:28.847Z,73.47
2023-04-11T18:38:02.589Z,73.93
2023-04-11T18:40:35.413Z,73.84
2023-04-11T18:43:08.260Z,74.40
2023-04-11T18:45:42.246Z,74.54
2023-04-11T18:48:15.223Z,73.78
2023-04-11T18:50:48.854Z,73.80
2023-04-11T18:53:21.201Z,73.62
2023-04-11T18:55:54.520Z,74.66
2023-04-11T18:58:29.512Z,74.99
2023-04-11T19:01:14.700Z,74.17
2023-04-11T19:03:49.280Z,73.12
2023-04-11T19:06:22.384Z,73.38
2023-04-11T19:08:55.202Z,73.19
2023-04-11T19:11:27.939Z,72.96
2023-04-11T19:14:01.526Z,73.32
2023-04-11T19:16:34.304Z,73.64
2023-04-11T19:19:06.827Z,73.56
2023-04-11T19:21:39.006Z,73.12
2023-04-11T19:24:11.473Z,72.18
2023-04-11T19:26:43.864Z,71.74
2023-04-11T19:29:17.650Z,72.58
2023-04-11T19:31:51.350Z,71.92
2023-04-11T19:34:23.556Z,71.97
2023-04-11T19:36:56.320Z,71.75
2023-04-11T19:39:35.563Z,72.03
2023-04-11T19:42:10.252Z,72.10
2023-04-11T19:44:42.666Z,72.50
2023-04-11T19:47:15.666Z,71.99
2023-04-11T19:49:48.101Z,71.99
2023-04-11T19:52:20.267Z,71.55
2023-04-11T19:54:52.967Z,71.63
2023-04-11T19:57:27.637Z,72.26
2023-04-11T19:59:58.419Z,73.25
2023-04-11T20:02:30.782Z,72.08
2023-04-11T20:05:03.144Z,73.36
2023-04-11T20:07:39.126Z,73.93
2023-04-11T20:10:13.902Z,73.03
2023-04-11T20:12:46.787Z,73.39
2023-04-11T20:15:19.017Z,73.26
2023-04-11T20:17:51.285Z,73.43
2023-04-11T20:20:27.925Z,73.11
2023-04-11T20:23:05.043Z,72.74
2023-04-11T20:25:37.662Z,72.59
2023-04-11T20:28:10.765Z,72.89
2023-04-11T20:30:43.300Z,72.71
2023-04-11T20:33:15.827Z,72.63
2023-04-11T20:35:52.565Z,72.75
2023-04-11T20:38:26.521Z,72.37
2023-04-11T20:41:03.604Z,72.13
2023-04-11T20:43:37.726Z,72.29
2023-04-11T20:46:13.491Z,72.32
2023-04-11T20:48:46.146Z,72.31
2023-04-11T20:51:18.692Z,72.35
2023-04-11T20:53:51.125Z,71.99
2023-04-11T20:56:23.752Z,72.26
2023-04-11T20:58:56.180Z,72.54
2023-04-11T21:01:32.468Z,72.31
2023-04-11T21:04:05.111Z,72.25
2023-04-11T21:06:37.612Z,71.65
2023-04-11T21:09:10.821Z,72.15
2023-04-11T21:11:43.582Z,72.00
2023-04-11T21:14:16.126Z,71.69
2023-04-11T21:16:50.073Z,72.02
2023-04-11T21:19:22.368Z,72.58
2023-04-11T21:21:54.486Z,72.84
2023-04-11T21:24:27.235Z,73.77
2023-04-11T21:26:59.519Z,72.97
2023-04-11T21:29:31.896Z,73.64
2023-04-11T21:32:03.975Z,74.65
2023-04-11T21:34:36.329Z,74.01
2023-04-11T21:37:08.413Z,73.96
2023-04-11T21:39:40.837Z,74.22
2023-04-11T21:42:13.330Z,74.04
2023-04-11T21:44:45.711Z,74.36
2023-04-11T21:47:18.156Z,74.46
2023-04-11T21:49:50.520Z,75.00
2023-04-11T21:52:22.589Z,74.80
2023-04-11T21:54:54.756Z,75.81
2023-04-11T21:57:27.133Z,75.57
2023-04-11T21:59:59.444Z,74.81
2023-04-11T22:02:32.046Z,74.22
2023-04-11T22:05:07.272Z,73.86
2023-04-11T22:07:47.539Z,73.84
2023-04-11T22:10:32.431Z,73.83
2023-04-11T22:13:10.433Z,74.00
2023-04-11T22:15:42.916Z,73.82
2023-04-11T22:18:16.077Z,73.47
2023-04-11T22:20:48.717Z,73.10
2023-04-11T22:23:21.694Z,73.65
2023-04-11T22:25:59.412Z,73.20
2023-04-11T22:28:33.298Z,73.29
2023-04-11T22:31:05.745Z,73.96
2023-04-11T22:33:38.010Z,73.65
2023-04-11T22:36:12.329Z,72.74
2023-04-11T22:38:45.647Z,72.56
2023-04-11T22:41:22.138Z,72.78
2023-04-11T22:43:54.953Z,72.38
2023-04-11T22:46:27.592Z,72.88
2023-04-11T22:48:59.897Z,72.90
2023-04-11T22:51:32.690Z,72.89
2023-04-11T22:54:05.152Z,72.85
2023-04-11T22:56:37.429Z,72.96
2023-04-11T22:59:09.736Z,73.08
2023-04-11T23:01:44.844Z,73.37
2023-04-11T23:04:17.244Z,73.33
2023-04-11T23:06:51.322Z,73.27
2023-04-11T23:09:23.979Z,73.46
2023-04-11T23:11:56.622Z,72.91
2023-04-11T23:14:31.496Z,72.71
2023-04-11T23:17:02.328Z,73.15
2023-04-11T23:19:35.344Z,72.90
2023-04-11T23:22:07.809Z,73.01
2023-04-11T23:24:40.117Z,72.82
2023-04-11T23:27:12.425Z,72.57
2023-04-11T23:29:49.342Z,72.53
2023-04-11T23:32:22.434Z,72.91
2023-04-11T23:34:54.637Z,72.97
2023-04-11T23:37:27.533Z,72.83
2023-04-11T23:40:00.326Z,72.59
2023-04-11T23:42:33.007Z,72.56
2023-04-11T23:45:06.113Z,73.10
2023-04-11T23:47:39.056Z,73.53
2023-04-11T23:50:13.848Z,72.91
2023-04-11T23:52:44.820Z,73.55
2023-04-11T23:55:17.232Z,73.83
2023-04-11T23:57:49.719Z,73.89
